Culpeper, Arkansas
Current Conditions -  °F | °C
As of 8:35 PM on Saturday 20 Dec 2014 (Local Time) from KCCA Reporting Station
Haze Haze  
Wind Chill:   Ceiling: 2500
Heat Index:   Visibility: 5mi
Dew Point:   Wind: 0mph
Humidity: 81%   Direction: NA
Pressure: 30.26"   Gusts: NA
Location:  35.6269°N, 92.5508°W
Report Text: KCCA 210235Z AUTO 00000KT 5SM HZ BKN025 OVC041 06/03 A3026 RMK AO2
Loading
Personal Weather Stations






























Interactive Weather Map New forecast layout! Learn more

10-Day Weather Forecast

Advertisements
Track Severe Weather on mobile